Aeroporto :
LOGIN :

Iscrizione | Disclaimer

   EN    FR    IT 

 










Sommario :    VFR   VFR Marginale   IFR   IFR Intensivo   IFR Molto Intensivo
Visibilità : 
Base nubi : 
>= 8 km
>= 3000ft
5 / 8 km
1000 / 3000 ft
1500m / 5 km
500 / 1000 ft
800 / 1500m
200 / 500 ft
< 800m
< 200 ft
Simboli :   Temporali  Nebbia  Neve Forte  Precipitazioni Forti  Vento > 20 kt
SIGMETs :   Varie  Temporali  Ghiacco  Turbolenza  Onda orograficha  Ceneri Vulcaniche






- Altitudine del aeroporto : 14 ft
- Codice IATA : BRE


EDDW - Bremen Neuenland

ULTIMO METAR :
  • 232250Z 13009KT CAVOK 13/12 Q1010

METARs OBSOLETI :
  • 232220Z 12008KT CAVOK 13/12 Q1010
  • 232150Z 12008KT 090V150 CAVOK 13/12 Q1010
  • 232120Z 13009KT 090V150 CAVOK 13/12 Q1011
  • 232050Z 11007KT CAVOK 13/12 Q1011 NOSIG
  • 232020Z 11009KT CAVOK 13/12 Q1011 NOSIG

TAF TAF EDDW
Valido dal 23 a 18 ore il 24 a 18 ore UTC


231700Z 2318/2418 12006KT CAVOK
TEMPO 2322/2401 4000 BR BKN005
BECMG 2401/2403 3500 BR BKN006
TEMPO 2401/2410 2500 OVC004
PROB30
TEMPO 2403/2409 1200
BECMG 2409/2412 19006KT CAVOK



MetMap, La meteo Aeronautica in un colpo d'occhio ! - Copyright ORBIFLY Dicembre 2007 - Disclaimer

ORBIFLY MET'MAP TEAM :

Programmazione e sviluppo : Alexandra Zaïnal
Concezione e sviluppo : Baudouin d'Aumeries
Co-Programmazione e sviluppo : Marc-Olivier Méhu
Supporto tecnico e logistico : Manuel Goepfert
Aiuto per la traduzione : Arnaldo La Scala

Contatto : metmap@orbifly.com




FONTI E CREDITI :

   NOAA